Terminal Aerodrome Forecast
Issued by NWS Cleveland, OH

Home | Current Version | Previous Version | Text Only | Print | Product List | Glossary On
Versions: 1 2 3 4 5 6 7 8 9 10 11 12 13 14 15 16 17
742
FTUS41 KCLE 061730
TAFTOL
TAF
KTOL 061730Z 0618/0718 23008KT P6SM SCT025
      TEMPO 0619/0620 BKN025
     FM070200 22005KT P6SM SCT025 BKN060=

USA.gov is the U.S. government's official web portal to all federal, state and local government web resources and services.